Time;durP1;ratioP1;P1;durP2;ratioP2;P2;SDS_P1;SDS_P2;PMS_P1;PMS_P2;Temp;Humidity;BMP_temperature;BMP_pressure;BME280_temperature;BME280_humidity;BME280_pressure;Samples;Min_cycle;Max_cycle;Signal;HPM_P1;HPM_P2
2023/08/20 00:00:29;;;;;;;15.07;13.88;;;;;;;22.65;70.22;98843.13;5115369;27;20416;-93
2023/08/20 00:02:59;;;;;;;15.35;13.77;;;;;;;22.80;69.26;98842.94;5118023;27;20047;-92
2023/08/20 00:05:25;;;;;;;14.05;12.95;;;;;;;22.88;69.01;98854.06;5118824;27;20041;-91
2023/08/20 00:07:51;;;;;;;13.50;12.38;;;;;;;23.02;67.72;98855.75;5116125;27;20059;-92
2023/08/20 00:10:17;;;;;;;13.65;12.55;;;;;;;22.97;68.48;98848.81;5118470;27;20058;-91
2023/08/20 00:12:43;;;;;;;14.38;13.25;;;;;;;22.93;68.25;98833.75;5117860;27;20039;-92
2023/08/20 00:15:10;;;;;;;14.25;13.15;;;;;;;22.85;68.44;98838.03;5116082;27;20059;-92
2023/08/20 00:17:39;;;;;;;14.15;13.00;;;;;;;22.89;66.29;98824.13;5117906;27;20530;-91
2023/08/20 00:20:12;;;;;;;14.30;13.10;;;;;;;22.93;67.86;98839.16;5115203;27;20388;-93
2023/08/20 00:22:39;;;;;;;14.07;12.98;;;;;;;22.85;68.35;98829.91;5115047;27;20381;-94
2023/08/20 00:25:07;;;;;;;15.85;14.68;;;;;;;22.81;68.64;98836.53;5117162;27;20039;-93
2023/08/20 00:27:33;;;;;;;15.27;14.30;;;;;;;22.66;69.29;98830.44;5116619;27;20049;-94
2023/08/20 00:29:58;;;;;;;14.95;13.90;;;;;;;22.60;69.68;98836.31;5117233;27;21257;-93
2023/08/20 00:32:25;;;;;;;15.35;14.18;;;;;;;22.68;69.01;98847.44;5117941;27;20096;-92
2023/08/20 00:34:51;;;;;;;14.73;13.63;;;;;;;22.56;68.19;98838.41;5116068;27;20122;-93
2023/08/20 00:37:17;;;;;;;14.60;13.52;;;;;;;22.63;67.63;98844.22;5117155;27;20565;-93
2023/08/20 00:39:43;;;;;;;16.23;14.73;;;;;;;22.60;69.02;98831.78;5117423;27;20438;-92
2023/08/20 00:42:09;;;;;;;14.77;13.70;;;;;;;22.60;69.07;98822.75;5117323;27;20042;-92
2023/08/20 00:44:35;;;;;;;16.27;15.10;;;;;;;22.67;69.47;98835.75;5117465;27;20039;-91
2023/08/20 00:47:03;;;;;;;16.40;15.13;;;;;;;22.67;70.43;98840.31;5114796;27;20032;-92
2023/08/20 00:49:31;;;;;;;15.77;14.57;;;;;;;22.27;72.61;98816.19;5104119;27;20039;-92
2023/08/20 00:51:58;;;;;;;15.95;14.75;;;;;;;22.31;74.26;98828.53;5098812;27;20093;-92
2023/08/20 00:54:28;;;;;;;17.23;15.93;;;;;;;22.20;74.79;98829.28;5097977;28;20036;-93
2023/08/20 00:56:55;;;;;;;17.05;15.85;;;;;;;22.15;75.78;98836.91;5093788;28;20040;-92
2023/08/20 00:59:21;;;;;;;16.10;14.77;;;;;;;22.08;73.53;98822.94;5098291;28;20152;-91
2023/08/20 01:01:47;;;;;;;16.00;14.70;;;;;;;22.42;71.16;98828.59;5095917;27;20045;-92
2023/08/20 01:04:12;;;;;;;16.13;14.98;;;;;;;22.54;70.22;98826.81;5102657;27;20090;-92
2023/08/20 01:06:46;;;;;;;15.38;14.18;;;;;;;22.67;68.37;98826.75;5098692;27;20047;-92
2023/08/20 01:09:21;;;;;;;16.17;14.80;;;;;;;22.75;68.78;98837.88;5096324;28;20721;-93
2023/08/20 01:11:52;;;;;;;17.38;16.15;;;;;;;22.72;67.42;98822.69;5098660;27;20044;-91
2023/08/20 01:14:18;;;;;;;16.65;15.45;;;;;;;23.00;66.36;98845.03;5099263;27;20104;-92
2023/08/20 01:16:44;;;;;;;17.15;15.73;;;;;;;22.90;68.15;98839.41;5096292;28;20039;-93
2023/08/20 01:19:16;;;;;;;17.13;15.73;;;;;;;23.20;64.24;98838.03;5096716;28;20047;-92
2023/08/20 01:21:51;;;;;;;16.52;15.18;;;;;;;23.17;65.68;98838.28;5095570;27;20062;-93
2023/08/20 01:24:33;;;;;;;16.52;15.32;;;;;;;23.24;64.11;98836.81;5098686;27;20040;-92
2023/08/20 01:27:10;;;;;;;16.38;15.10;;;;;;;23.28;64.15;98837.47;5102553;28;20046;-92
2023/08/20 01:29:39;;;;;;;16.75;15.43;;;;;;;23.39;62.83;98826.63;5104857;27;20442;-92
2023/08/20 01:32:05;;;;;;;17.30;16.08;;;;;;;23.43;63.43;98830.81;5099761;27;20039;-93
2023/08/20 01:34:31;;;;;;;15.82;14.70;;;;;;;23.33;65.65;98837.94;5099728;28;20040;-92
2023/08/20 01:36:57;;;;;;;16.42;14.93;;;;;;;23.19;66.33;98838.19;5115257;27;20032;-92
2023/08/20 01:39:23;;;;;;;16.05;14.95;;;;;;;23.10;66.46;98840.63;5098780;27;20031;-91
2023/08/20 01:41:49;;;;;;;16.10;14.90;;;;;;;23.02;67.25;98848.47;5098618;27;20063;-92
2023/08/20 01:44:15;;;;;;;17.50;15.82;;;;;;;22.82;68.27;98839.13;5096251;27;20046;-93
2023/08/20 01:46:42;;;;;;;17.10;15.90;;;;;;;22.61;69.76;98830.78;5095892;27;20150;-92
2023/08/20 01:49:08;;;;;;;15.63;14.45;;;;;;;22.55;70.95;98836.66;5112717;27;20437;-93
2023/08/20 01:51:36;;;;;;;17.02;15.82;;;;;;;22.45;71.21;98835.66;5114172;27;20063;-93
2023/08/20 01:54:02;;;;;;;17.35;16.02;;;;;;;22.28;72.50;98829.63;5110837;27;20042;-93
2023/08/20 01:56:28;;;;;;;19.00;17.50;;;;;;;22.27;73.19;98833.31;5117419;27;20035;-92
2023/08/20 01:58:54;;;;;;;17.08;15.82;;;;;;;22.19;74.80;98841.13;5108025;27;20063;-92
2023/08/20 02:01:19;;;;;;;17.65;16.40;;;;;;;22.08;76.15;98849.16;5114901;27;20035;-92
2023/08/20 02:03:47;;;;;;;18.40;17.05;;;;;;;21.86;77.15;98820.94;5107593;27;20039;-91
2023/08/20 02:06:12;;;;;;;17.58;16.15;;;;;;;21.84;78.54;98846.38;5109814;27;20037;-92
2023/08/20 02:08:38;;;;;;;18.88;17.45;;;;;;;21.69;79.99;98837.53;5110365;27;20039;-92
2023/08/20 02:11:04;;;;;;;17.98;16.77;;;;;;;21.53;81.86;98840.47;5111172;27;20043;-91
2023/08/20 02:13:31;;;;;;;18.33;17.02;;;;;;;21.44;83.67;98830.28;5111361;27;20043;-93
2023/08/20 02:16:00;;;;;;;19.58;18.17;;;;;;;21.44;86.10;98841.97;5109386;27;20511;-92
2023/08/20 02:18:26;;;;;;;20.15;18.55;;;;;;;21.40;87.70;98829.59;5112636;27;20091;-93
2023/08/20 02:20:54;;;;;;;19.83;18.38;;;;;;;21.13;90.15;98817.06;5112458;27;20744;-91
2023/08/20 02:23:19;;;;;;;20.13;18.67;;;;;;;21.26;90.47;98837.84;5107259;27;20396;-92
2023/08/20 02:25:47;;;;;;;18.92;17.65;;;;;;;21.39;89.62;98848.66;5112401;27;20031;-92
2023/08/20 02:28:13;;;;;;;20.30;18.70;;;;;;;21.10;91.97;98813.69;5108646;27;20056;-92
2023/08/20 02:30:40;;;;;;;18.83;17.38;;;;;;;21.23;91.78;98820.00;5106413;27;20051;-93
2023/08/20 02:33:06;;;;;;;20.98;19.48;;;;;;;21.33;91.36;98831.88;5113045;27;20546;-92
2023/08/20 02:35:32;;;;;;;20.88;19.27;;;;;;;21.27;92.18;98835.00;5113636;27;20039;-92
2023/08/20 02:37:59;;;;;;;22.40;20.50;;;;;;;21.30;91.83;98825.84;5106264;27;20039;-92
2023/08/20 02:40:25;;;;;;;20.95;19.38;;;;;;;21.26;91.99;98824.31;5110113;27;20084;-92
2023/08/20 02:42:51;;;;;;;21.88;20.35;;;;;;;21.13;94.16;98825.16;5109853;27;20043;-92
2023/08/20 02:45:17;;;;;;;22.13;20.42;;;;;;;20.91;96.55;98820.38;5130283;27;20442;-92
2023/08/20 02:47:42;;;;;;;23.27;21.35;;;;;;;20.93;98.22;98820.28;5110345;27;20059;-93
2023/08/20 02:50:09;;;;;;;23.35;21.63;;;;;;;20.96;98.20;98827.31;5110255;27;20055;-91
2023/08/20 02:52:35;;;;;;;23.83;21.95;;;;;;;20.97;99.01;98837.13;5112145;27;20031;-94
2023/08/20 02:55:04;;;;;;;24.48;22.67;;;;;;;20.93;99.29;98841.91;5110468;27;20046;-92
2023/08/20 02:57:30;;;;;;;23.65;21.88;;;;;;;20.82;100.00;98830.94;5110993;27;20547;-92
2023/08/20 02:59:55;;;;;;;25.95;24.15;;;;;;;20.83;100.00;98843.50;5113540;27;20123;-93
2023/08/20 03:02:22;;;;;;;26.80;24.77;;;;;;;20.76;100.00;98836.78;5111449;27;20043;-91
2023/08/20 03:04:47;;;;;;;26.30;24.40;;;;;;;20.63;100.00;98825.94;5107636;27;20032;-91
2023/08/20 03:07:13;;;;;;;25.95;23.85;;;;;;;20.76;100.00;98828.69;5108000;28;20042;-93
2023/08/20 03:09:39;;;;;;;26.55;24.55;;;;;;;20.73;100.00;98827.03;5111172;28;20126;-93
2023/08/20 03:12:07;;;;;;;25.45;23.73;;;;;;;20.96;100.00;98835.41;5108452;27;20031;-91
2023/08/20 03:14:33;;;;;;;25.83;23.83;;;;;;;21.01;100.00;98849.47;5107187;27;20041;-92
2023/08/20 03:16:59;;;;;;;26.85;24.80;;;;;;;20.91;100.00;98835.75;5107464;28;20359;-93
2023/08/20 03:19:25;;;;;;;26.20;24.38;;;;;;;20.84;100.00;98840.69;5108441;28;20088;-93
2023/08/20 03:21:51;;;;;;;29.75;27.35;;;;;;;20.67;100.00;98830.19;5108505;28;20039;-91
2023/08/20 03:24:16;;;;;;;27.45;25.58;;;;;;;20.75;100.00;98843.16;5108499;27;20087;-91
2023/08/20 03:26:42;;;;;;;1506.38;755.90;;;;;;;20.76;100.00;98844.91;5109430;28;20042;-91
2023/08/20 03:29:09;;;;;;;1999.90;999.90;;;;;;;20.77;100.00;98838.50;5109452;28;20070;-91
2023/08/20 03:31:35;;;;;;;1999.90;999.90;;;;;;;20.68;100.00;98838.16;5106679;28;20450;-92
2023/08/20 03:34:01;;;;;;;1999.90;999.90;;;;;;;20.66;100.00;98834.69;5107274;28;20043;-92
2023/08/20 03:36:27;;;;;;;1999.90;999.90;;;;;;;20.52;100.00;98829.34;5110733;28;20035;-91
2023/08/20 03:38:53;;;;;;;1999.90;999.90;;;;;;;20.50;100.00;98839.38;5106501;28;20066;-92
2023/08/20 03:41:19;;;;;;;1999.90;999.90;;;;;;;20.54;100.00;98840.91;5107588;28;20059;-92
2023/08/20 03:43:44;;;;;;;1999.90;999.90;;;;;;;20.65;100.00;98834.81;5109397;28;20042;-91
2023/08/20 03:46:12;;;;;;;1999.90;999.90;;;;;;;20.85;100.00;98836.16;5106807;28;20042;-91
2023/08/20 03:48:37;;;;;;;1999.90;999.90;;;;;;;20.61;100.00;98833.28;5110121;28;20047;-92
2023/08/20 03:51:03;;;;;;;1999.90;999.90;;;;;;;20.57;100.00;98853.34;5111770;28;20031;-92
2023/08/20 03:53:29;;;;;;;1999.90;999.90;;;;;;;20.58;100.00;98852.38;5112426;28;20039;-93
2023/08/20 03:55:55;;;;;;;1999.90;999.90;;;;;;;20.65;100.00;98845.63;5110300;28;20462;-92
2023/08/20 03:58:20;;;;;;;1999.90;999.90;;;;;;;20.67;100.00;98852.66;5112015;28;20039;-91
2023/08/20 04:00:46;;;;;;;1999.90;999.90;;;;;;;20.59;100.00;98846.88;5106239;28;20059;-92
2023/08/20 04:03:14;;;;;;;1999.90;999.90;;;;;;;20.51;100.00;98843.78;5110617;28;20129;-92
2023/08/20 04:05:39;;;;;;;1999.90;999.90;;;;;;;20.48;100.00;98844.00;5111316;28;20067;-93
2023/08/20 04:08:06;;;;;;;1999.90;999.90;;;;;;;20.61;100.00;98861.16;5107544;28;20436;-91
2023/08/20 04:10:32;;;;;;;1999.90;999.90;;;;;;;20.46;100.00;98829.75;5106733;28;20043;-92
2023/08/20 04:12:58;;;;;;;1999.90;999.90;;;;;;;20.75;100.00;98856.66;5100687;28;20093;-92
2023/08/20 04:15:24;;;;;;;1999.90;999.90;;;;;;;20.84;100.00;98854.22;5110660;28;20039;-92
2023/08/20 04:17:50;;;;;;;1999.90;999.90;;;;;;;20.99;100.00;98859.53;5107195;28;20423;-92
2023/08/20 04:20:17;;;;;;;1999.90;999.90;;;;;;;20.91;100.00;98836.59;5109650;28;20081;-91
2023/08/20 04:22:43;;;;;;;1999.90;999.90;;;;;;;21.12;100.00;98844.19;5108105;28;20104;-91
2023/08/20 04:25:09;;;;;;;1999.90;999.90;;;;;;;21.31;100.00;98839.22;5102412;28;20497;-91
2023/08/20 04:27:35;;;;;;;1999.90;999.90;;;;;;;21.46;100.00;98847.28;5111624;27;20090;-92
2023/08/20 04:30:01;;;;;;;1999.90;999.90;;;;;;;21.52;100.00;98839.59;5112281;27;20031;-93
2023/08/20 04:32:27;;;;;;;1999.90;999.90;;;;;;;21.63;100.00;98846.09;5115087;27;20039;-93
2023/08/20 04:34:54;;;;;;;1999.90;999.90;;;;;;;21.69;100.00;98859.19;5110604;27;20050;-92
2023/08/20 04:37:21;;;;;;;1999.90;999.90;;;;;;;21.59;100.00;98836.47;5118039;27;20031;-92
2023/08/20 04:39:47;;;;;;;1999.90;999.90;;;;;;;21.61;100.00;98848.03;5111305;27;20036;-91
2023/08/20 04:42:12;;;;;;;1999.90;999.90;;;;;;;21.36;100.00;98830.81;5107569;27;20048;-94
2023/08/20 04:44:38;;;;;;;1999.90;999.90;;;;;;;21.57;100.00;98849.22;5112257;27;20158;-91
2023/08/20 04:47:04;;;;;;;1999.90;999.90;;;;;;;21.72;100.00;98843.59;5112028;27;20088;-91
2023/08/20 04:49:30;;;;;;;1999.90;999.90;;;;;;;21.87;100.00;98855.16;5115151;27;20073;-92
2023/08/20 04:51:56;;;;;;;1999.90;999.90;;;;;;;21.92;100.00;98852.09;5110031;27;20043;-94
2023/08/20 04:54:23;;;;;;;1999.90;999.90;;;;;;;21.90;100.00;98854.06;5111838;27;20126;-92
2023/08/20 04:56:49;;;;;;;1999.90;999.90;;;;;;;21.76;100.00;98846.09;5106470;27;20036;-92
2023/08/20 04:59:14;;;;;;;1999.90;999.90;;;;;;;21.62;100.00;98836.22;5106073;27;20035;-92
2023/08/20 05:01:40;;;;;;;1999.90;999.90;;;;;;;21.57;100.00;98851.94;5109530;27;20039;-91
2023/08/20 05:04:06;;;;;;;1999.90;999.90;;;;;;;21.46;100.00;98831.06;5112653;27;20054;-92
2023/08/20 05:06:32;;;;;;;1999.90;999.90;;;;;;;21.49;100.00;98853.34;5111742;27;20871;-92
2023/08/20 05:08:58;;;;;;;1999.90;999.90;;;;;;;21.44;100.00;98860.06;5106804;27;20067;-92
2023/08/20 05:11:25;;;;;;;1999.90;999.90;;;;;;;21.51;100.00;98870.34;5114295;27;20043;-93
2023/08/20 05:13:51;;;;;;;1999.90;999.90;;;;;;;21.48;100.00;98861.56;5111065;27;20062;-92
2023/08/20 05:16:16;;;;;;;1999.90;999.90;;;;;;;21.42;100.00;98854.75;5111853;27;20063;-92
2023/08/20 05:18:42;;;;;;;1999.90;999.90;;;;;;;21.23;100.00;98847.03;5118663;27;20092;-92
2023/08/20 05:21:11;;;;;;;1999.90;999.90;;;;;;;21.31;100.00;98876.25;5109634;27;20066;-93
2023/08/20 05:23:36;;;;;;;;;;;;;;;21.36;100.00;98876.81;5112525;27;20369;-91
2023/08/20 05:26:02;;;;;;;1999.90;999.90;;;;;;;21.25;100.00;98871.25;5113732;27;19922;-93
2023/08/20 05:28:29;;;;;;;1999.90;999.90;;;;;;;21.37;100.00;98874.97;5113045;27;20039;-93
2023/08/20 05:30:56;;;;;;;1999.90;999.90;;;;;;;21.39;100.00;98849.53;5113973;27;20549;-92
2023/08/20 05:33:22;;;;;;;1999.90;999.90;;;;;;;21.57;100.00;98857.34;5112408;27;20507;-91
2023/08/20 05:35:49;;;;;;;1999.90;999.90;;;;;;;21.86;100.00;98875.09;5108498;28;20039;-93
2023/08/20 05:38:14;;;;;;;1999.90;999.90;;;;;;;21.94;100.00;98869.13;5109133;27;20031;-95
2023/08/20 05:40:41;;;;;;;1999.90;999.90;;;;;;;22.21;100.00;98868.97;5110650;27;20036;-93
2023/08/20 05:43:06;;;;;;;1999.90;999.90;;;;;;;22.59;100.00;98886.94;5114313;27;20027;-92
2023/08/20 05:45:34;;;;;;;1999.90;999.90;;;;;;;22.76;100.00;98870.28;5107732;27;20043;-92
2023/08/20 05:47:59;;;;;;;1999.90;999.90;;;;;;;23.03;100.00;98873.75;5111538;27;20078;-92
2023/08/20 05:50:25;;;;;;;1999.90;999.90;;;;;;;23.32;100.00;98876.94;5110884;27;20096;-91
2023/08/20 05:52:52;;;;;;;1999.90;999.90;;;;;;;23.45;100.00;98874.97;5109532;27;20031;-92
2023/08/20 05:55:18;;;;;;;1999.90;999.90;;;;;;;23.59;98.60;98873.88;5113755;27;20100;-93
2023/08/20 05:57:44;;;;;;;1999.90;999.90;;;;;;;23.86;96.55;98889.03;5114802;27;20039;-92
2023/08/20 06:00:11;;;;;;;1999.90;999.90;;;;;;;24.06;90.90;98891.00;5109742;27;20044;-91
2023/08/20 06:02:39;;;;;;;1999.90;999.90;;;;;;;24.24;88.58;98899.47;5110541;27;20047;-93
2023/08/20 06:05:05;;;;;;;1999.90;999.90;;;;;;;24.30;85.87;98877.25;5112979;27;20097;-94
2023/08/20 06:07:31;;;;;;;1999.90;999.90;;;;;;;24.46;82.21;98886.84;5114085;27;20042;-94
2023/08/20 06:09:57;;;;;;;1999.90;999.90;;;;;;;24.39;80.93;98873.78;5114416;27;20036;-92
2023/08/20 06:12:23;;;;;;;1999.90;999.90;;;;;;;24.60;82.81;98902.94;5114432;27;20054;-92
2023/08/20 06:14:49;;;;;;;1999.90;999.90;;;;;;;24.53;80.10;98890.84;5114289;27;20043;-93
2023/08/20 06:17:15;;;;;;;1999.90;999.90;;;;;;;24.55;80.07;98889.72;5115943;27;20043;-92
2023/08/20 06:19:42;;;;;;;1999.90;999.90;;;;;;;24.70;78.08;98897.59;5114142;27;20488;-92
2023/08/20 06:22:08;;;;;;;1999.90;999.90;;;;;;;24.61;79.83;98891.06;5117160;27;20039;-93
2023/08/20 06:24:34;;;;;;;1999.90;999.90;;;;;;;24.64;77.39;98895.41;5110384;27;20503;-92
2023/08/20 06:27:00;;;;;;;1999.90;999.90;;;;;;;24.65;76.80;98884.38;5113935;27;20062;-92
2023/08/20 06:29:26;;;;;;;1999.90;999.90;;;;;;;24.89;76.93;98900.47;5111999;27;20061;-92
2023/08/20 06:31:51;;;;;;;1999.90;999.90;;;;;;;24.98;76.90;98885.25;5111401;27;20062;-92
2023/08/20 06:34:17;;;;;;;1999.90;999.90;;;;;;;25.09;77.01;98874.34;5112843;27;20282;-92
2023/08/20 06:36:45;;;;;;;1999.90;999.90;;;;;;;25.01;75.32;98883.13;5115035;27;20393;-93
2023/08/20 06:39:10;;;;;;;1999.90;999.90;;;;;;;25.05;77.15;98877.41;5108414;27;20031;-92
2023/08/20 06:41:36;;;;;;;1999.90;999.90;;;;;;;25.15;76.88;98894.69;5111541;27;20387;-93
2023/08/20 06:44:03;;;;;;;1999.90;999.90;;;;;;;25.37;76.01;98877.41;5115838;27;20039;-91
2023/08/20 06:46:28;;;;;;;1999.90;999.90;;;;;;;25.74;72.33;98891.44;5109799;27;20047;-91
2023/08/20 06:48:54;;;;;;;1999.90;999.90;;;;;;;26.03;71.19;98897.03;5101788;28;20370;-93
2023/08/20 06:51:21;;;;;;;1999.90;999.90;;;;;;;26.19;70.20;98896.53;5098107;28;20040;-93
2023/08/20 06:53:49;;;;;;;1999.90;999.90;;;;;;;26.25;70.39;98900.56;5097031;28;20136;-94
2023/08/20 06:56:15;;;;;;;1999.90;999.90;;;;;;;25.93;71.47;98889.81;5096028;28;20047;-94
2023/08/20 06:59:35;;;;;;;1999.90;999.90;;;;;;;26.15;71.18;98900.53;5093322;28;20488;-91
2023/08/20 07:02:00;;;;;;;1999.90;999.90;;;;;;;26.44;69.88;98899.78;5086975;27;20071;-91
2023/08/20 07:04:26;;;;;;;1999.90;999.90;;;;;;;26.69;67.12;98897.56;5096509;28;20404;-92
2023/08/20 07:06:52;;;;;;;1999.90;999.90;;;;;;;26.93;71.87;98905.34;5094218;28;20043;-92
2023/08/20 07:09:19;;;;;;;1999.90;999.90;;;;;;;26.75;67.63;98897.00;5093233;28;20045;-92
2023/08/20 07:11:45;;;;;;;1999.90;999.90;;;;;;;26.89;68.31;98884.78;5092640;28;20071;-92
2023/08/20 07:14:11;;;;;;;1999.90;999.90;;;;;;;27.01;67.46;98867.28;5092612;28;20044;-91
2023/08/20 07:16:36;;;;;;;1999.90;999.90;;;;;;;27.41;65.65;98886.28;5091763;28;20396;-93
2023/08/20 07:19:02;;;;;;;1506.60;755.97;;;;;;;27.68;63.36;98872.84;5095662;28;20032;-92
2023/08/20 07:21:28;;;;;;;33.22;29.92;;;;;;;27.70;62.83;98874.41;5092138;28;20048;-93
2023/08/20 07:23:54;;;;;;;31.10;27.90;;;;;;;27.71;62.33;98878.84;5094570;28;20040;-93
2023/08/20 07:26:21;;;;;;;31.63;28.50;;;;;;;27.85;62.52;98897.56;5094814;28;20040;-92
2023/08/20 07:31:41;;;;;;;31.10;27.77;;;;;;;27.99;59.96;98893.47;5102795;27;1396702;-90
2023/08/20 07:34:07;;;;;;;30.70;27.55;;;;;;;27.96;60.94;98888.31;5116920;27;20048;-92
2023/08/20 07:36:32;;;;;;;30.20;27.17;;;;;;;27.98;61.09;98880.81;5120108;27;20043;-91
2023/08/20 07:38:59;;;;;;;33.13;29.98;;;;;;;28.26;58.54;98884.44;5115511;27;20036;-95
2023/08/20 07:44:17;;;;;;;35.03;31.35;;;;;;;28.55;56.03;98888.06;5110327;27;21105;-91
2023/08/20 07:46:43;;;;;;;33.90;30.60;;;;;;;28.21;58.08;98891.38;5069673;28;20048;-91
2023/08/20 07:49:09;;;;;;;31.48;28.40;;;;;;;28.41;58.82;98871.13;5073502;28;20044;-90
2023/08/20 07:51:35;;;;;;;31.20;27.85;;;;;;;28.74;59.21;98881.63;5074150;28;20386;-92
2023/08/20 07:54:01;;;;;;;34.95;30.83;;;;;;;28.54;57.51;98883.59;5074502;28;20047;-92
2023/08/20 07:56:26;;;;;;;32.90;29.52;;;;;;;28.50;56.86;98879.44;5074496;28;20110;-93
2023/08/20 07:58:52;;;;;;;30.25;27.23;;;;;;;28.66;57.88;98879.63;5074193;28;20048;-92
2023/08/20 08:01:20;;;;;;;30.05;27.00;;;;;;;28.92;55.97;98890.69;5070937;28;20419;-91
2023/08/20 08:03:45;;;;;;;29.83;26.95;;;;;;;29.07;56.05;98883.66;5073823;28;20132;-93
2023/08/20 08:06:11;;;;;;;30.25;27.17;;;;;;;29.19;55.03;98876.09;5072875;28;20136;-93
2023/08/20 08:08:44;;;;;;;31.42;28.33;;;;;;;29.19;53.40;98881.56;5074241;28;20060;-92
2023/08/20 08:11:10;;;;;;;32.15;29.10;;;;;;;29.00;55.11;98888.03;5072695;28;20079;-91
2023/08/20 08:13:36;;;;;;;31.15;28.05;;;;;;;28.92;55.73;98890.69;5072652;28;20094;-92
2023/08/20 08:16:02;;;;;;;31.17;28.02;;;;;;;28.55;57.19;98875.25;5071411;28;20049;-93
2023/08/20 08:18:29;;;;;;;29.95;27.08;;;;;;;28.87;55.85;98887.56;5072965;28;20051;-92
2023/08/20 08:20:55;;;;;;;32.65;29.55;;;;;;;29.12;55.03;98891.41;5109640;28;20033;-94
2023/08/20 08:23:21;;;;;;;30.63;27.50;;;;;;;29.11;54.19;98876.03;5076210;28;20050;-95
2023/08/20 08:25:47;;;;;;;30.48;27.42;;;;;;;29.09;53.80;98891.75;5078281;28;20408;-93
2023/08/20 08:28:12;;;;;;;29.60;26.48;;;;;;;29.40;53.75;98883.09;5072759;28;20501;-94
2023/08/20 08:30:39;;;;;;;28.70;25.95;;;;;;;29.62;53.45;98877.09;5071624;28;20456;-92
2023/08/20 08:33:08;;;;;;;27.98;25.00;;;;;;;29.76;54.96;98870.22;5074247;28;20056;-95
2023/08/20 08:35:36;;;;;;;28.48;25.75;;;;;;;29.90;53.39;98883.31;5076039;28;20044;-93
2023/08/20 08:38:03;;;;;;;29.42;26.48;;;;;;;29.88;52.76;98871.66;5071688;28;20043;-93
2023/08/20 08:40:30;;;;;;;29.50;26.65;;;;;;;30.09;51.41;98863.03;5076109;28;20044;-94
2023/08/20 08:42:56;;;;;;;29.85;27.15;;;;;;;30.07;50.54;98867.81;5071633;28;20041;-91
2023/08/20 08:45:23;;;;;;;29.85;26.85;;;;;;;30.08;50.63;98861.31;5071200;28;20555;-91
2023/08/20 08:47:49;;;;;;;30.15;27.45;;;;;;;30.18;50.29;98874.88;5075140;28;20501;-92
2023/08/20 08:50:15;;;;;;;31.27;26.38;;;;;;;30.23;50.58;98866.16;5071820;28;20476;-91
2023/08/20 08:52:46;;;;;;;29.88;27.20;;;;;;;30.12;49.33;98880.19;5071908;28;20063;-91
2023/08/20 08:55:12;;;;;;;28.67;26.15;;;;;;;30.11;49.67;98868.34;5061151;28;20032;-92
2023/08/20 08:57:38;;;;;;;30.40;27.52;;;;;;;30.23;50.39;98857.94;5062151;28;20068;-92
2023/08/20 09:00:05;;;;;;;29.48;26.65;;;;;;;30.43;49.28;98873.16;5059551;28;20047;-92
2023/08/20 09:02:31;;;;;;;28.70;26.08;;;;;;;30.15;50.58;98864.25;5065844;28;20094;-92
2023/08/20 09:04:58;;;;;;;29.88;27.20;;;;;;;29.98;49.00;98849.59;5062710;28;20060;-92
2023/08/20 09:07:24;;;;;;;29.38;26.48;;;;;;;30.07;49.37;98853.25;5061447;28;20041;-92
2023/08/20 09:09:57;;;;;;;28.40;25.80;;;;;;;30.37;48.46;98864.72;5058139;28;20387;-92
2023/08/20 09:12:23;;;;;;;29.13;26.23;;;;;;;30.44;48.44;98861.13;5055223;28;20099;-91
2023/08/20 09:14:51;;;;;;;28.13;25.50;;;;;;;30.44;47.91;98876.75;5059937;28;20052;-91
2023/08/20 09:17:19;;;;;;;26.70;24.25;;;;;;;30.44;48.41;98866.63;5055975;28;20433;-92
2023/08/20 09:19:45;;;;;;;28.23;25.60;;;;;;;30.47;48.29;98862.69;5057824;28;20463;-91
2023/08/20 09:22:12;;;;;;;30.13;27.05;;;;;;;30.65;47.42;98857.94;5061059;28;20131;-91
2023/08/20 09:24:42;;;;;;;25.80;23.27;;;;;;;30.87;47.86;98848.22;5057707;28;20418;-92
2023/08/20 09:27:13;;;;;;;28.08;25.25;;;;;;;31.14;46.62;98848.09;5063801;28;20070;-93
2023/08/20 09:29:46;;;;;;;27.23;24.58;;;;;;;31.43;46.28;98858.59;5056113;28;20041;-92
2023/08/20 09:32:18;;;;;;;26.88;24.20;;;;;;;31.33;44.19;98867.81;5059707;28;20044;-91
2023/08/20 09:34:43;;;;;;;27.70;24.85;;;;;;;31.18;44.35;98857.69;5089087;28;20486;-90
2023/08/20 09:37:10;;;;;;;26.67;24.48;;;;;;;30.89;45.00;98854.41;5089580;28;20103;-92
2023/08/20 09:39:36;;;;;;;29.02;26.17;;;;;;;30.99;42.77;98856.13;5060401;28;20144;-90
2023/08/20 09:42:03;;;;;;;28.35;25.90;;;;;;;30.70;42.17;98860.19;5058373;28;20037;-92
2023/08/20 09:44:34;;;;;;;26.63;24.17;;;;;;;31.04;42.25;98846.38;5055587;28;20040;-91
2023/08/20 09:47:02;;;;;;;26.02;23.83;;;;;;;31.27;41.56;98851.16;5054366;28;20597;-90
2023/08/20 09:49:30;;;;;;;25.38;23.38;;;;;;;31.08;41.72;98858.75;5057563;28;20730;-92
2023/08/20 09:51:56;;;;;;;;;;;;;;;31.21;40.77;98862.88;5056204;28;20044;-92
2023/08/20 09:54:31;;;;;;;25.52;23.50;;;;;;;31.07;41.02;98859.75;5054664;28;19921;-91
2023/08/20 09:57:02;;;;;;;28.27;25.98;;;;;;;31.21;40.92;98852.72;5055602;28;20132;-92
2023/08/20 09:59:30;;;;;;;29.23;27.05;;;;;;;31.18;39.04;98846.72;5059928;28;20047;-93
2023/08/20 10:01:57;;;;;;;27.10;25.05;;;;;;;30.79;40.06;98847.34;5087301;28;20120;-94
2023/08/20 10:04:23;;;;;;;26.70;24.63;;;;;;;31.02;40.58;98851.19;5088434;28;20499;-91
2023/08/20 10:06:50;;;;;;;24.48;22.63;;;;;;;30.96;41.32;98849.09;5058673;28;20036;-93
2023/08/20 10:09:18;;;;;;;25.65;23.58;;;;;;;31.33;39.30;98834.00;5066726;28;20060;-93
2023/08/20 10:11:43;;;;;;;24.10;21.92;;;;;;;31.73;38.69;98837.78;5065092;28;20135;-94
2023/08/20 10:14:09;;;;;;;25.45;23.15;;;;;;;31.83;39.39;98845.81;5061586;28;20471;-93
2023/08/20 10:16:37;;;;;;;23.80;21.85;;;;;;;31.72;39.36;98842.38;5054174;28;20045;-93
2023/08/20 10:19:03;;;;;;;24.47;22.33;;;;;;;31.76;38.89;98834.66;5062840;28;20032;-93
2023/08/20 10:21:29;;;;;;;24.52;22.63;;;;;;;32.03;38.74;98844.41;5054910;28;20131;-93
2023/08/20 10:23:55;;;;;;;24.38;22.58;;;;;;;31.62;39.29;98843.59;5059560;28;20578;-92
2023/08/20 10:26:24;;;;;;;25.35;23.45;;;;;;;31.15;39.44;98836.94;5057947;28;20037;-92
2023/08/20 10:28:50;;;;;;;23.08;21.17;;;;;;;31.27;38.62;98824.56;5059342;28;20041;-93
2023/08/20 10:31:17;;;;;;;24.23;22.40;;;;;;;31.43;38.54;98840.22;5055761;28;20037;-92
2023/08/20 10:33:53;;;;;;;24.63;22.80;;;;;;;31.28;40.39;98834.53;5056019;28;20125;-93
2023/08/20 10:36:22;;;;;;;24.60;22.63;;;;;;;31.59;39.77;98828.31;5057725;28;20029;-91
2023/08/20 10:38:49;;;;;;;25.35;23.15;;;;;;;31.50;38.47;98843.13;5053390;28;20510;-92
2023/08/20 10:41:16;;;;;;;23.73;21.92;;;;;;;31.51;39.67;98842.06;5094307;28;20040;-93
2023/08/20 10:43:48;;;;;;;24.45;21.20;;;;;;;31.39;39.42;98838.81;5055570;28;20048;-93
2023/08/20 10:46:15;;;;;;;22.75;20.77;;;;;;;31.64;39.42;98839.69;5053660;28;20052;-94
2023/08/20 10:48:43;;;;;;;22.55;20.77;;;;;;;31.44;38.86;98819.94;5056033;28;20051;-92
2023/08/20 10:51:14;;;;;;;21.42;19.60;;;;;;;31.70;39.40;98825.19;5057720;28;20049;-94
2023/08/20 10:53:42;;;;;;;22.10;20.20;;;;;;;31.75;40.27;98835.69;5059809;28;20120;-93
2023/08/20 10:56:10;;;;;;;22.77;20.80;;;;;;;31.63;39.95;98826.94;5059823;28;20140;-91
2023/08/20 10:58:38;;;;;;;22.10;20.05;;;;;;;31.61;40.10;98820.75;5063933;28;20040;-93
2023/08/20 11:01:21;;;;;;;20.92;19.25;;;;;;;32.01;39.36;98832.72;5062948;28;20048;-93
2023/08/20 11:03:48;;;;;;;21.63;19.83;;;;;;;32.06;39.45;98829.44;5053013;28;20040;-94
2023/08/20 11:06:16;;;;;;;20.92;19.45;;;;;;;31.17;40.31;98820.28;5054575;28;20049;-93
2023/08/20 11:08:43;;;;;;;22.00;20.25;;;;;;;31.54;40.02;98814.25;5063226;28;20033;-95
2023/08/20 11:11:11;;;;;;;22.40;20.63;;;;;;;31.75;38.91;98807.31;5057796;28;20045;-92